<?xml version="1.0" encoding="UTF-8" standalone="no" ?>
<gpx xmlns="http://www.topografix.com/GPX/1/1" xmlns:xsi="http://www.w3.org/2001/XMLSchema-instance" xsi:schemaLocation="http://www.topografix.com/GPX/1/1 http://www.topografix.com/GPX/1/1/gpx.xsd" version="1.1" creator="VisuGPX - https://www.visugpx.com">
  <metadata>
    <name>12570690-Ste Etienne la Varenne</name>
  </metadata>
  <trk>
    <name><![CDATA[12570690-Ste Etienne la Varenne]]></name>
    <trkseg>
      <trkpt lat="46.07713" lon="4.62976">
        <ele>375</ele>
        <time>2022-01-10T10:45:11Z</time>
      </trkpt>
      <trkpt lat="46.07718" lon="4.62972">
        <ele>375</ele>
        <time>2022-01-10T10:45:19Z</time>
      </trkpt>
      <trkpt lat="46.07772" lon="4.62959">
        <ele>374</ele>
        <time>2022-01-10T10:46:32Z</time>
      </trkpt>
      <trkpt lat="46.07819" lon="4.62951">
        <ele>373</ele>
        <time>2022-01-10T10:47:35Z</time>
      </trkpt>
      <trkpt lat="46.0788" lon="4.62935">
        <ele>374</ele>
        <time>2022-01-10T10:48:58Z</time>
      </trkpt>
      <trkpt lat="46.07918" lon="4.62931">
        <ele>375</ele>
        <time>2022-01-10T10:49:48Z</time>
      </trkpt>
      <trkpt lat="46.07948" lon="4.62925">
        <ele>376</ele>
        <time>2022-01-10T10:50:29Z</time>
      </trkpt>
      <trkpt lat="46.07967" lon="4.62914">
        <ele>377</ele>
        <time>2022-01-10T10:50:56Z</time>
      </trkpt>
      <trkpt lat="46.07972" lon="4.62923">
        <ele>378</ele>
        <time>2022-01-10T10:51:07Z</time>
      </trkpt>
      <trkpt lat="46.08027" lon="4.62952">
        <ele>381</ele>
        <time>2022-01-10T10:52:25Z</time>
      </trkpt>
      <trkpt lat="46.08087" lon="4.62981">
        <ele>387</ele>
        <time>2022-01-10T10:53:49Z</time>
      </trkpt>
      <trkpt lat="46.08158" lon="4.63019">
        <ele>395</ele>
        <time>2022-01-10T10:55:31Z</time>
      </trkpt>
      <trkpt lat="46.08226" lon="4.63052">
        <ele>403</ele>
        <time>2022-01-10T10:57:06Z</time>
      </trkpt>
      <trkpt lat="46.08291" lon="4.63049">
        <ele>410</ele>
        <time>2022-01-10T10:58:33Z</time>
      </trkpt>
      <trkpt lat="46.08329" lon="4.6306">
        <ele>415</ele>
        <time>2022-01-10T10:59:25Z</time>
      </trkpt>
      <trkpt lat="46.08347" lon="4.63061">
        <ele>417</ele>
        <time>2022-01-10T10:59:49Z</time>
      </trkpt>
      <trkpt lat="46.08379" lon="4.63054">
        <ele>421</ele>
        <time>2022-01-10T11:00:32Z</time>
      </trkpt>
      <trkpt lat="46.08408" lon="4.63042">
        <ele>425</ele>
        <time>2022-01-10T11:01:12Z</time>
      </trkpt>
      <trkpt lat="46.08425" lon="4.63045">
        <ele>427</ele>
        <time>2022-01-10T11:01:35Z</time>
      </trkpt>
      <trkpt lat="46.08431" lon="4.6304">
        <ele>427</ele>
        <time>2022-01-10T11:01:44Z</time>
      </trkpt>
      <trkpt lat="46.08459" lon="4.62975">
        <ele>429</ele>
        <time>2022-01-10T11:02:55Z</time>
      </trkpt>
      <trkpt lat="46.08453" lon="4.6296">
        <ele>429</ele>
        <time>2022-01-10T11:03:11Z</time>
      </trkpt>
      <trkpt lat="46.08459" lon="4.62975">
        <ele>429</ele>
        <time>2022-01-10T11:03:27Z</time>
      </trkpt>
      <trkpt lat="46.08545" lon="4.62912">
        <ele>434</ele>
        <time>2022-01-10T11:05:36Z</time>
      </trkpt>
      <trkpt lat="46.086" lon="4.62879">
        <ele>435</ele>
        <time>2022-01-10T11:06:55Z</time>
      </trkpt>
      <trkpt lat="46.08683" lon="4.62637">
        <ele>448</ele>
        <time>2022-01-10T11:11:05Z</time>
      </trkpt>
      <trkpt lat="46.08699" lon="4.62596">
        <ele>451</ele>
        <time>2022-01-10T11:11:49Z</time>
      </trkpt>
      <trkpt lat="46.08733" lon="4.62536">
        <ele>458</ele>
        <time>2022-01-10T11:13:01Z</time>
      </trkpt>
      <trkpt lat="46.08762" lon="4.62499">
        <ele>464</ele>
        <time>2022-01-10T11:13:52Z</time>
      </trkpt>
      <trkpt lat="46.08799" lon="4.62427">
        <ele>470</ele>
        <time>2022-01-10T11:15:15Z</time>
      </trkpt>
      <trkpt lat="46.08824" lon="4.62395">
        <ele>474</ele>
        <time>2022-01-10T11:16:00Z</time>
      </trkpt>
      <trkpt lat="46.08845" lon="4.62335">
        <ele>479</ele>
        <time>2022-01-10T11:17:02Z</time>
      </trkpt>
      <trkpt lat="46.08862" lon="4.62305">
        <ele>484</ele>
        <time>2022-01-10T11:17:38Z</time>
      </trkpt>
      <trkpt lat="46.08897" lon="4.62289">
        <ele>490</ele>
        <time>2022-01-10T11:18:27Z</time>
      </trkpt>
      <trkpt lat="46.08971" lon="4.62275">
        <ele>500</ele>
        <time>2022-01-10T11:20:06Z</time>
      </trkpt>
      <trkpt lat="46.08993" lon="4.6226">
        <ele>505</ele>
        <time>2022-01-10T11:20:39Z</time>
      </trkpt>
      <trkpt lat="46.08998" lon="4.62249">
        <ele>508</ele>
        <time>2022-01-10T11:20:51Z</time>
      </trkpt>
      <trkpt lat="46.09025" lon="4.62213">
        <ele>515</ele>
        <time>2022-01-10T11:21:40Z</time>
      </trkpt>
      <trkpt lat="46.09029" lon="4.62197">
        <ele>518</ele>
        <time>2022-01-10T11:21:56Z</time>
      </trkpt>
      <trkpt lat="46.09035" lon="4.62167">
        <ele>523</ele>
        <time>2022-01-10T11:22:25Z</time>
      </trkpt>
      <trkpt lat="46.09041" lon="4.62151">
        <ele>524</ele>
        <time>2022-01-10T11:22:42Z</time>
      </trkpt>
      <trkpt lat="46.09044" lon="4.62118">
        <ele>528</ele>
        <time>2022-01-10T11:23:12Z</time>
      </trkpt>
      <trkpt lat="46.09038" lon="4.62071">
        <ele>536</ele>
        <time>2022-01-10T11:23:57Z</time>
      </trkpt>
      <trkpt lat="46.08972" lon="4.61948">
        <ele>559</ele>
        <time>2022-01-10T11:26:21Z</time>
      </trkpt>
      <trkpt lat="46.08967" lon="4.61912">
        <ele>563</ele>
        <time>2022-01-10T11:26:55Z</time>
      </trkpt>
      <trkpt lat="46.08972" lon="4.61879">
        <ele>568</ele>
        <time>2022-01-10T11:27:26Z</time>
      </trkpt>
      <trkpt lat="46.08991" lon="4.61843">
        <ele>575</ele>
        <time>2022-01-10T11:28:08Z</time>
      </trkpt>
      <trkpt lat="46.09025" lon="4.61786">
        <ele>582</ele>
        <time>2022-01-10T11:29:17Z</time>
      </trkpt>
      <trkpt lat="46.09052" lon="4.61693">
        <ele>597</ele>
        <time>2022-01-10T11:30:51Z</time>
      </trkpt>
      <trkpt lat="46.09041" lon="4.61651">
        <ele>601</ele>
        <time>2022-01-10T11:31:32Z</time>
      </trkpt>
      <trkpt lat="46.0903" lon="4.61653">
        <ele>601</ele>
        <time>2022-01-10T11:31:47Z</time>
      </trkpt>
      <trkpt lat="46.09041" lon="4.61651">
        <ele>601</ele>
        <time>2022-01-10T11:32:02Z</time>
      </trkpt>
      <trkpt lat="46.09047" lon="4.61673">
        <ele>600</ele>
        <time>2022-01-10T11:32:24Z</time>
      </trkpt>
      <trkpt lat="46.09082" lon="4.61658">
        <ele>601</ele>
        <time>2022-01-10T11:33:12Z</time>
      </trkpt>
      <trkpt lat="46.09117" lon="4.61633">
        <ele>608</ele>
        <time>2022-01-10T11:34:04Z</time>
      </trkpt>
      <trkpt lat="46.09187" lon="4.61596">
        <ele>624</ele>
        <time>2022-01-10T11:35:44Z</time>
      </trkpt>
      <trkpt lat="46.09212" lon="4.61599">
        <ele>625</ele>
        <time>2022-01-10T11:36:17Z</time>
      </trkpt>
      <trkpt lat="46.09248" lon="4.61582">
        <ele>628</ele>
        <time>2022-01-10T11:37:08Z</time>
      </trkpt>
      <trkpt lat="46.09319" lon="4.61641">
        <ele>621</ele>
        <time>2022-01-10T11:38:57Z</time>
      </trkpt>
      <trkpt lat="46.09375" lon="4.61682">
        <ele>615</ele>
        <time>2022-01-10T11:40:21Z</time>
      </trkpt>
      <trkpt lat="46.0945" lon="4.61763">
        <ele>599</ele>
        <time>2022-01-10T11:42:26Z</time>
      </trkpt>
      <trkpt lat="46.09474" lon="4.61779">
        <ele>593</ele>
        <time>2022-01-10T11:43:01Z</time>
      </trkpt>
      <trkpt lat="46.09549" lon="4.61836">
        <ele>581</ele>
        <time>2022-01-10T11:44:55Z</time>
      </trkpt>
      <trkpt lat="46.09642" lon="4.6191">
        <ele>578</ele>
        <time>2022-01-10T11:47:16Z</time>
      </trkpt>
      <trkpt lat="46.0971" lon="4.61958">
        <ele>579</ele>
        <time>2022-01-10T11:48:57Z</time>
      </trkpt>
      <trkpt lat="46.09799" lon="4.62041">
        <ele>580</ele>
        <time>2022-01-10T11:51:19Z</time>
      </trkpt>
      <trkpt lat="46.09828" lon="4.62057">
        <ele>580</ele>
        <time>2022-01-10T11:52:00Z</time>
      </trkpt>
      <trkpt lat="46.09896" lon="4.62078">
        <ele>584</ele>
        <time>2022-01-10T11:53:33Z</time>
      </trkpt>
      <trkpt lat="46.09922" lon="4.62095">
        <ele>585</ele>
        <time>2022-01-10T11:54:11Z</time>
      </trkpt>
      <trkpt lat="46.09966" lon="4.62153">
        <ele>580</ele>
        <time>2022-01-10T11:55:31Z</time>
      </trkpt>
      <trkpt lat="46.10024" lon="4.62259">
        <ele>572</ele>
        <time>2022-01-10T11:57:36Z</time>
      </trkpt>
      <trkpt lat="46.10061" lon="4.62307">
        <ele>567</ele>
        <time>2022-01-10T11:58:42Z</time>
      </trkpt>
      <trkpt lat="46.10096" lon="4.62331">
        <ele>562</ele>
        <time>2022-01-10T11:59:34Z</time>
      </trkpt>
      <trkpt lat="46.10153" lon="4.62351">
        <ele>547</ele>
        <time>2022-01-10T12:00:52Z</time>
      </trkpt>
      <trkpt lat="46.10197" lon="4.6235">
        <ele>541</ele>
        <time>2022-01-10T12:01:51Z</time>
      </trkpt>
      <trkpt lat="46.10276" lon="4.6233">
        <ele>533</ele>
        <time>2022-01-10T12:03:38Z</time>
      </trkpt>
      <trkpt lat="46.10341" lon="4.62309">
        <ele>527</ele>
        <time>2022-01-10T12:05:07Z</time>
      </trkpt>
      <trkpt lat="46.10389" lon="4.62305">
        <ele>520</ele>
        <time>2022-01-10T12:06:11Z</time>
      </trkpt>
      <trkpt lat="46.10465" lon="4.62306">
        <ele>509</ele>
        <time>2022-01-10T12:07:52Z</time>
      </trkpt>
      <trkpt lat="46.10494" lon="4.62304">
        <ele>505</ele>
        <time>2022-01-10T12:08:31Z</time>
      </trkpt>
      <trkpt lat="46.10517" lon="4.62293">
        <ele>500</ele>
        <time>2022-01-10T12:09:03Z</time>
      </trkpt>
      <trkpt lat="46.10534" lon="4.62292">
        <ele>497</ele>
        <time>2022-01-10T12:09:26Z</time>
      </trkpt>
      <trkpt lat="46.10569" lon="4.62297">
        <ele>491</ele>
        <time>2022-01-10T12:10:13Z</time>
      </trkpt>
      <trkpt lat="46.10582" lon="4.62302">
        <ele>488</ele>
        <time>2022-01-10T12:10:31Z</time>
      </trkpt>
      <trkpt lat="46.10569" lon="4.62297">
        <ele>491</ele>
        <time>2022-01-10T12:10:49Z</time>
      </trkpt>
      <trkpt lat="46.10636" lon="4.62129">
        <ele>468</ele>
        <time>2022-01-10T12:13:48Z</time>
      </trkpt>
      <trkpt lat="46.10648" lon="4.62116">
        <ele>466</ele>
        <time>2022-01-10T12:14:08Z</time>
      </trkpt>
      <trkpt lat="46.10651" lon="4.62121">
        <ele>466</ele>
        <time>2022-01-10T12:14:14Z</time>
      </trkpt>
      <trkpt lat="46.10731" lon="4.62176">
        <ele>445</ele>
        <time>2022-01-10T12:16:13Z</time>
      </trkpt>
      <trkpt lat="46.10731" lon="4.62176">
        <ele>445</ele>
        <time>2022-01-10T12:16:13Z</time>
      </trkpt>
      <trkpt lat="46.10826" lon="4.62152">
        <ele>415</ele>
        <time>2022-01-10T12:18:21Z</time>
      </trkpt>
      <trkpt lat="46.10822" lon="4.62152">
        <ele>416</ele>
        <time>2022-01-10T12:18:27Z</time>
      </trkpt>
      <trkpt lat="46.10822" lon="4.62156">
        <ele>416</ele>
        <time>2022-01-10T12:18:30Z</time>
      </trkpt>
      <trkpt lat="46.10861" lon="4.62232">
        <ele>412</ele>
        <time>2022-01-10T12:19:58Z</time>
      </trkpt>
      <trkpt lat="46.10892" lon="4.62299">
        <ele>412</ele>
        <time>2022-01-10T12:21:12Z</time>
      </trkpt>
      <trkpt lat="46.10918" lon="4.62348">
        <ele>412</ele>
        <time>2022-01-10T12:22:09Z</time>
      </trkpt>
      <trkpt lat="46.10939" lon="4.62416">
        <ele>411</ele>
        <time>2022-01-10T12:23:18Z</time>
      </trkpt>
      <trkpt lat="46.10938" lon="4.62441">
        <ele>410</ele>
        <time>2022-01-10T12:23:42Z</time>
      </trkpt>
      <trkpt lat="46.10928" lon="4.6247">
        <ele>412</ele>
        <time>2022-01-10T12:24:11Z</time>
      </trkpt>
      <trkpt lat="46.10928" lon="4.62492">
        <ele>411</ele>
        <time>2022-01-10T12:24:32Z</time>
      </trkpt>
      <trkpt lat="46.10931" lon="4.62512">
        <ele>409</ele>
        <time>2022-01-10T12:24:51Z</time>
      </trkpt>
      <trkpt lat="46.10941" lon="4.62536">
        <ele>404</ele>
        <time>2022-01-10T12:25:17Z</time>
      </trkpt>
      <trkpt lat="46.10952" lon="4.62551">
        <ele>401</ele>
        <time>2022-01-10T12:25:37Z</time>
      </trkpt>
      <trkpt lat="46.10967" lon="4.62599">
        <ele>394</ele>
        <time>2022-01-10T12:26:26Z</time>
      </trkpt>
      <trkpt lat="46.10994" lon="4.62676">
        <ele>382</ele>
        <time>2022-01-10T12:27:45Z</time>
      </trkpt>
      <trkpt lat="46.11013" lon="4.62646">
        <ele>378</ele>
        <time>2022-01-10T12:28:23Z</time>
      </trkpt>
      <trkpt lat="46.11028" lon="4.62729">
        <ele>364</ele>
        <time>2022-01-10T12:29:42Z</time>
      </trkpt>
      <trkpt lat="46.11033" lon="4.62816">
        <ele>353</ele>
        <time>2022-01-10T12:31:03Z</time>
      </trkpt>
      <trkpt lat="46.11052" lon="4.62836">
        <ele>348</ele>
        <time>2022-01-10T12:31:35Z</time>
      </trkpt>
      <trkpt lat="46.11059" lon="4.62851">
        <ele>346</ele>
        <time>2022-01-10T12:31:51Z</time>
      </trkpt>
      <trkpt lat="46.11056" lon="4.62867">
        <ele>345</ele>
        <time>2022-01-10T12:32:07Z</time>
      </trkpt>
      <trkpt lat="46.11027" lon="4.6291">
        <ele>344</ele>
        <time>2022-01-10T12:33:02Z</time>
      </trkpt>
      <trkpt lat="46.1102" lon="4.62917">
        <ele>345</ele>
        <time>2022-01-10T12:33:13Z</time>
      </trkpt>
      <trkpt lat="46.11024" lon="4.62921">
        <ele>344</ele>
        <time>2022-01-10T12:33:20Z</time>
      </trkpt>
      <trkpt lat="46.11073" lon="4.63003">
        <ele>332</ele>
        <time>2022-01-10T12:35:00Z</time>
      </trkpt>
      <trkpt lat="46.11109" lon="4.63082">
        <ele>321</ele>
        <time>2022-01-10T12:36:28Z</time>
      </trkpt>
      <trkpt lat="46.11145" lon="4.63149">
        <ele>317</ele>
        <time>2022-01-10T12:37:46Z</time>
      </trkpt>
      <trkpt lat="46.11151" lon="4.63163">
        <ele>317</ele>
        <time>2022-01-10T12:38:01Z</time>
      </trkpt>
      <trkpt lat="46.11153" lon="4.63178">
        <ele>316</ele>
        <time>2022-01-10T12:38:15Z</time>
      </trkpt>
      <trkpt lat="46.11163" lon="4.63171">
        <ele>317</ele>
        <time>2022-01-10T12:38:30Z</time>
      </trkpt>
      <trkpt lat="46.11193" lon="4.63116">
        <ele>314</ele>
        <time>2022-01-10T12:39:35Z</time>
      </trkpt>
      <trkpt lat="46.11211" lon="4.63039">
        <ele>310</ele>
        <time>2022-01-10T12:40:50Z</time>
      </trkpt>
      <trkpt lat="46.11238" lon="4.62964">
        <ele>303</ele>
        <time>2022-01-10T12:42:08Z</time>
      </trkpt>
      <trkpt lat="46.11245" lon="4.6293">
        <ele>301</ele>
        <time>2022-01-10T12:42:41Z</time>
      </trkpt>
      <trkpt lat="46.11247" lon="4.62861">
        <ele>297</ele>
        <time>2022-01-10T12:43:45Z</time>
      </trkpt>
      <trkpt lat="46.11208" lon="4.62735">
        <ele>299</ele>
        <time>2022-01-10T12:45:53Z</time>
      </trkpt>
      <trkpt lat="46.11201" lon="4.62676">
        <ele>296</ele>
        <time>2022-01-10T12:46:48Z</time>
      </trkpt>
      <trkpt lat="46.11201" lon="4.62612">
        <ele>292</ele>
        <time>2022-01-10T12:47:47Z</time>
      </trkpt>
      <trkpt lat="46.11199" lon="4.62558">
        <ele>293</ele>
        <time>2022-01-10T12:48:37Z</time>
      </trkpt>
      <trkpt lat="46.11206" lon="4.62535">
        <ele>292</ele>
        <time>2022-01-10T12:49:00Z</time>
      </trkpt>
      <trkpt lat="46.11218" lon="4.62522">
        <ele>288</ele>
        <time>2022-01-10T12:49:20Z</time>
      </trkpt>
      <trkpt lat="46.11216" lon="4.62545">
        <ele>288</ele>
        <time>2022-01-10T12:49:42Z</time>
      </trkpt>
      <trkpt lat="46.11219" lon="4.62571">
        <ele>285</ele>
        <time>2022-01-10T12:50:06Z</time>
      </trkpt>
      <trkpt lat="46.11253" lon="4.62663">
        <ele>273</ele>
        <time>2022-01-10T12:51:43Z</time>
      </trkpt>
      <trkpt lat="46.11272" lon="4.62695">
        <ele>273</ele>
        <time>2022-01-10T12:52:22Z</time>
      </trkpt>
      <trkpt lat="46.1128" lon="4.62703">
        <ele>273</ele>
        <time>2022-01-10T12:52:35Z</time>
      </trkpt>
      <trkpt lat="46.11272" lon="4.62695">
        <ele>273</ele>
        <time>2022-01-10T12:52:48Z</time>
      </trkpt>
      <trkpt lat="46.11276" lon="4.6271">
        <ele>274</ele>
        <time>2022-01-10T12:53:03Z</time>
      </trkpt>
      <trkpt lat="46.11272" lon="4.62695">
        <ele>273</ele>
        <time>2022-01-10T12:53:17Z</time>
      </trkpt>
      <trkpt lat="46.11266" lon="4.62675">
        <ele>272</ele>
        <time>2022-01-10T12:53:38Z</time>
      </trkpt>
      <trkpt lat="46.1126" lon="4.62654">
        <ele>272</ele>
        <time>2022-01-10T12:53:59Z</time>
      </trkpt>
      <trkpt lat="46.11255" lon="4.62622">
        <ele>273</ele>
        <time>2022-01-10T12:54:29Z</time>
      </trkpt>
      <trkpt lat="46.11256" lon="4.62574">
        <ele>273</ele>
        <time>2022-01-10T12:55:13Z</time>
      </trkpt>
      <trkpt lat="46.11255" lon="4.62556">
        <ele>274</ele>
        <time>2022-01-10T12:55:30Z</time>
      </trkpt>
      <trkpt lat="46.11256" lon="4.62474">
        <ele>275</ele>
        <time>2022-01-10T12:56:46Z</time>
      </trkpt>
      <trkpt lat="46.11263" lon="4.62389">
        <ele>275</ele>
        <time>2022-01-10T12:58:05Z</time>
      </trkpt>
      <trkpt lat="46.1126" lon="4.62378">
        <ele>276</ele>
        <time>2022-01-10T12:58:16Z</time>
      </trkpt>
      <trkpt lat="46.11252" lon="4.62337">
        <ele>277</ele>
        <time>2022-01-10T12:58:56Z</time>
      </trkpt>
      <trkpt lat="46.11246" lon="4.62292">
        <ele>276</ele>
        <time>2022-01-10T12:59:38Z</time>
      </trkpt>
      <trkpt lat="46.11251" lon="4.6225">
        <ele>272</ele>
        <time>2022-01-10T13:00:17Z</time>
      </trkpt>
      <trkpt lat="46.11249" lon="4.62208">
        <ele>269</ele>
        <time>2022-01-10T13:00:56Z</time>
      </trkpt>
      <trkpt lat="46.11225" lon="4.62153">
        <ele>274</ele>
        <time>2022-01-10T13:01:56Z</time>
      </trkpt>
      <trkpt lat="46.11213" lon="4.6211">
        <ele>275</ele>
        <time>2022-01-10T13:02:39Z</time>
      </trkpt>
      <trkpt lat="46.11208" lon="4.62091">
        <ele>275</ele>
        <time>2022-01-10T13:02:58Z</time>
      </trkpt>
      <trkpt lat="46.11207" lon="4.62056">
        <ele>274</ele>
        <time>2022-01-10T13:03:30Z</time>
      </trkpt>
      <trkpt lat="46.11213" lon="4.62025">
        <ele>272</ele>
        <time>2022-01-10T13:04:00Z</time>
      </trkpt>
      <trkpt lat="46.11224" lon="4.62018">
        <ele>269</ele>
        <time>2022-01-10T13:04:16Z</time>
      </trkpt>
      <trkpt lat="46.11237" lon="4.62068">
        <ele>267</ele>
        <time>2022-01-10T13:05:06Z</time>
      </trkpt>
      <trkpt lat="46.11249" lon="4.62076">
        <ele>264</ele>
        <time>2022-01-10T13:05:23Z</time>
      </trkpt>
      <trkpt lat="46.11259" lon="4.62075">
        <ele>264</ele>
        <time>2022-01-10T13:05:37Z</time>
      </trkpt>
      <trkpt lat="46.1127" lon="4.62073">
        <ele>264</ele>
        <time>2022-01-10T13:05:52Z</time>
      </trkpt>
      <trkpt lat="46.11285" lon="4.62069">
        <ele>264</ele>
        <time>2022-01-10T13:06:12Z</time>
      </trkpt>
      <trkpt lat="46.11354" lon="4.62033">
        <ele>267</ele>
        <time>2022-01-10T13:07:50Z</time>
      </trkpt>
      <trkpt lat="46.1138" lon="4.62132">
        <ele>265</ele>
        <time>2022-01-10T13:09:28Z</time>
      </trkpt>
      <trkpt lat="46.11435" lon="4.62288">
        <ele>263</ele>
        <time>2022-01-10T13:12:10Z</time>
      </trkpt>
      <trkpt lat="46.1138" lon="4.62132">
        <ele>265</ele>
        <time>2022-01-10T13:14:52Z</time>
      </trkpt>
      <trkpt lat="46.11354" lon="4.62033">
        <ele>267</ele>
        <time>2022-01-10T13:16:29Z</time>
      </trkpt>
      <trkpt lat="46.11285" lon="4.62069">
        <ele>264</ele>
        <time>2022-01-10T13:18:07Z</time>
      </trkpt>
      <trkpt lat="46.1127" lon="4.62073">
        <ele>264</ele>
        <time>2022-01-10T13:18:28Z</time>
      </trkpt>
      <trkpt lat="46.11259" lon="4.62075">
        <ele>264</ele>
        <time>2022-01-10T13:18:43Z</time>
      </trkpt>
      <trkpt lat="46.11249" lon="4.62076">
        <ele>264</ele>
        <time>2022-01-10T13:18:56Z</time>
      </trkpt>
      <trkpt lat="46.11237" lon="4.62068">
        <ele>267</ele>
        <time>2022-01-10T13:19:14Z</time>
      </trkpt>
      <trkpt lat="46.11224" lon="4.62018">
        <ele>269</ele>
        <time>2022-01-10T13:20:03Z</time>
      </trkpt>
      <trkpt lat="46.1119" lon="4.61885">
        <ele>275</ele>
        <time>2022-01-10T13:22:14Z</time>
      </trkpt>
      <trkpt lat="46.11156" lon="4.61703">
        <ele>277</ele>
        <time>2022-01-10T13:25:08Z</time>
      </trkpt>
      <trkpt lat="46.11147" lon="4.61591">
        <ele>276</ele>
        <time>2022-01-10T13:26:53Z</time>
      </trkpt>
      <trkpt lat="46.11146" lon="4.61523">
        <ele>274</ele>
        <time>2022-01-10T13:27:56Z</time>
      </trkpt>
      <trkpt lat="46.11152" lon="4.61447">
        <ele>274</ele>
        <time>2022-01-10T13:29:06Z</time>
      </trkpt>
      <trkpt lat="46.11154" lon="4.61411">
        <ele>274</ele>
        <time>2022-01-10T13:29:40Z</time>
      </trkpt>
      <trkpt lat="46.1115" lon="4.61375">
        <ele>275</ele>
        <time>2022-01-10T13:30:14Z</time>
      </trkpt>
      <trkpt lat="46.1114" lon="4.61362">
        <ele>276</ele>
        <time>2022-01-10T13:30:32Z</time>
      </trkpt>
      <trkpt lat="46.11122" lon="4.61356">
        <ele>277</ele>
        <time>2022-01-10T13:30:56Z</time>
      </trkpt>
      <trkpt lat="46.11112" lon="4.61349">
        <ele>278</ele>
        <time>2022-01-10T13:31:11Z</time>
      </trkpt>
      <trkpt lat="46.11097" lon="4.61326">
        <ele>278</ele>
        <time>2022-01-10T13:31:40Z</time>
      </trkpt>
      <trkpt lat="46.11074" lon="4.61271">
        <ele>279</ele>
        <time>2022-01-10T13:32:40Z</time>
      </trkpt>
      <trkpt lat="46.11069" lon="4.61254">
        <ele>279</ele>
        <time>2022-01-10T13:32:57Z</time>
      </trkpt>
      <trkpt lat="46.11056" lon="4.61241">
        <ele>280</ele>
        <time>2022-01-10T13:33:18Z</time>
      </trkpt>
      <trkpt lat="46.11048" lon="4.61238">
        <ele>281</ele>
        <time>2022-01-10T13:33:29Z</time>
      </trkpt>
      <trkpt lat="46.11036" lon="4.61198">
        <ele>281</ele>
        <time>2022-01-10T13:34:09Z</time>
      </trkpt>
      <trkpt lat="46.11026" lon="4.61176">
        <ele>281</ele>
        <time>2022-01-10T13:34:34Z</time>
      </trkpt>
      <trkpt lat="46.11022" lon="4.61166">
        <ele>281</ele>
        <time>2022-01-10T13:34:44Z</time>
      </trkpt>
      <trkpt lat="46.11035" lon="4.6116">
        <ele>281</ele>
        <time>2022-01-10T13:35:02Z</time>
      </trkpt>
      <trkpt lat="46.11052" lon="4.61158">
        <ele>280</ele>
        <time>2022-01-10T13:35:25Z</time>
      </trkpt>
      <trkpt lat="46.11053" lon="4.61151">
        <ele>280</ele>
        <time>2022-01-10T13:35:32Z</time>
      </trkpt>
      <trkpt lat="46.11052" lon="4.61144">
        <ele>280</ele>
        <time>2022-01-10T13:35:38Z</time>
      </trkpt>
      <trkpt lat="46.11044" lon="4.61133">
        <ele>280</ele>
        <time>2022-01-10T13:35:53Z</time>
      </trkpt>
      <trkpt lat="46.10997" lon="4.61079">
        <ele>280</ele>
        <time>2022-01-10T13:37:13Z</time>
      </trkpt>
      <trkpt lat="46.10988" lon="4.61047">
        <ele>282</ele>
        <time>2022-01-10T13:37:45Z</time>
      </trkpt>
      <trkpt lat="46.10978" lon="4.60992">
        <ele>287</ele>
        <time>2022-01-10T13:38:38Z</time>
      </trkpt>
      <trkpt lat="46.10981" lon="4.60982">
        <ele>288</ele>
        <time>2022-01-10T13:38:48Z</time>
      </trkpt>
      <trkpt lat="46.10982" lon="4.60983">
        <ele>287</ele>
        <time>2022-01-10T13:38:50Z</time>
      </trkpt>
      <trkpt lat="46.10908" lon="4.60904">
        <ele>306</ele>
        <time>2022-01-10T13:40:53Z</time>
      </trkpt>
      <trkpt lat="46.10908" lon="4.60904">
        <ele>306</ele>
        <time>2022-01-10T13:40:53Z</time>
      </trkpt>
      <trkpt lat="46.10864" lon="4.60886">
        <ele>310</ele>
        <time>2022-01-10T13:41:54Z</time>
      </trkpt>
      <trkpt lat="46.1086" lon="4.60889">
        <ele>310</ele>
        <time>2022-01-10T13:42:00Z</time>
      </trkpt>
      <trkpt lat="46.10854" lon="4.60871">
        <ele>313</ele>
        <time>2022-01-10T13:42:18Z</time>
      </trkpt>
      <trkpt lat="46.10837" lon="4.6083">
        <ele>320</ele>
        <time>2022-01-10T13:43:02Z</time>
      </trkpt>
      <trkpt lat="46.10828" lon="4.60796">
        <ele>326</ele>
        <time>2022-01-10T13:43:36Z</time>
      </trkpt>
      <trkpt lat="46.10825" lon="4.60793">
        <ele>326</ele>
        <time>2022-01-10T13:43:41Z</time>
      </trkpt>
      <trkpt lat="46.10826" lon="4.60792">
        <ele>326</ele>
        <time>2022-01-10T13:43:42Z</time>
      </trkpt>
      <trkpt lat="46.10704" lon="4.60731">
        <ele>342</ele>
        <time>2022-01-10T13:46:35Z</time>
      </trkpt>
      <trkpt lat="46.10704" lon="4.60731">
        <ele>342</ele>
        <time>2022-01-10T13:46:35Z</time>
      </trkpt>
      <trkpt lat="46.10605" lon="4.6071">
        <ele>335</ele>
        <time>2022-01-10T13:48:48Z</time>
      </trkpt>
      <trkpt lat="46.10605" lon="4.6071">
        <ele>335</ele>
        <time>2022-01-10T13:48:48Z</time>
      </trkpt>
      <trkpt lat="46.10515" lon="4.60616">
        <ele>342</ele>
        <time>2022-01-10T13:51:17Z</time>
      </trkpt>
      <trkpt lat="46.10515" lon="4.60616">
        <ele>342</ele>
        <time>2022-01-10T13:51:17Z</time>
      </trkpt>
      <trkpt lat="46.1035" lon="4.60564">
        <ele>328</ele>
        <time>2022-01-10T13:55:02Z</time>
      </trkpt>
      <trkpt lat="46.10349" lon="4.60567">
        <ele>327</ele>
        <time>2022-01-10T13:55:05Z</time>
      </trkpt>
      <trkpt lat="46.10322" lon="4.60565">
        <ele>323</ele>
        <time>2022-01-10T13:55:41Z</time>
      </trkpt>
      <trkpt lat="46.10303" lon="4.60557">
        <ele>322</ele>
        <time>2022-01-10T13:56:07Z</time>
      </trkpt>
      <trkpt lat="46.10278" lon="4.60555">
        <ele>320</ele>
        <time>2022-01-10T13:56:41Z</time>
      </trkpt>
      <trkpt lat="46.10267" lon="4.60546">
        <ele>320</ele>
        <time>2022-01-10T13:56:58Z</time>
      </trkpt>
      <trkpt lat="46.10259" lon="4.60544">
        <ele>319</ele>
        <time>2022-01-10T13:57:09Z</time>
      </trkpt>
      <trkpt lat="46.10249" lon="4.60545">
        <ele>318</ele>
        <time>2022-01-10T13:57:22Z</time>
      </trkpt>
      <trkpt lat="46.10244" lon="4.60552">
        <ele>317</ele>
        <time>2022-01-10T13:57:31Z</time>
      </trkpt>
      <trkpt lat="46.10236" lon="4.60579">
        <ele>313</ele>
        <time>2022-01-10T13:57:58Z</time>
      </trkpt>
      <trkpt lat="46.10224" lon="4.60644">
        <ele>313</ele>
        <time>2022-01-10T13:59:01Z</time>
      </trkpt>
      <trkpt lat="46.10236" lon="4.60682">
        <ele>314</ele>
        <time>2022-01-10T13:59:39Z</time>
      </trkpt>
      <trkpt lat="46.10196" lon="4.60666">
        <ele>317</ele>
        <time>2022-01-10T14:00:35Z</time>
      </trkpt>
      <trkpt lat="46.10126" lon="4.60591">
        <ele>322</ele>
        <time>2022-01-10T14:02:31Z</time>
      </trkpt>
      <trkpt lat="46.10099" lon="4.60566">
        <ele>324</ele>
        <time>2022-01-10T14:03:14Z</time>
      </trkpt>
      <trkpt lat="46.10061" lon="4.60544">
        <ele>326</ele>
        <time>2022-01-10T14:04:09Z</time>
      </trkpt>
      <trkpt lat="46.09984" lon="4.60514">
        <ele>330</ele>
        <time>2022-01-10T14:05:55Z</time>
      </trkpt>
      <trkpt lat="46.0993" lon="4.60485">
        <ele>333</ele>
        <time>2022-01-10T14:07:12Z</time>
      </trkpt>
      <trkpt lat="46.09905" lon="4.60474">
        <ele>334</ele>
        <time>2022-01-10T14:07:47Z</time>
      </trkpt>
      <trkpt lat="46.09741" lon="4.60415">
        <ele>338</ele>
        <time>2022-01-10T14:11:32Z</time>
      </trkpt>
      <trkpt lat="46.09745" lon="4.60424">
        <ele>339</ele>
        <time>2022-01-10T14:11:42Z</time>
      </trkpt>
      <trkpt lat="46.09753" lon="4.60432">
        <ele>340</ele>
        <time>2022-01-10T14:11:55Z</time>
      </trkpt>
      <trkpt lat="46.09745" lon="4.60424">
        <ele>339</ele>
        <time>2022-01-10T14:12:08Z</time>
      </trkpt>
      <trkpt lat="46.09741" lon="4.60415">
        <ele>338</ele>
        <time>2022-01-10T14:12:18Z</time>
      </trkpt>
      <trkpt lat="46.09716" lon="4.60405">
        <ele>340</ele>
        <time>2022-01-10T14:12:53Z</time>
      </trkpt>
      <trkpt lat="46.09669" lon="4.60395">
        <ele>344</ele>
        <time>2022-01-10T14:13:56Z</time>
      </trkpt>
      <trkpt lat="46.0965" lon="4.60385">
        <ele>346</ele>
        <time>2022-01-10T14:14:23Z</time>
      </trkpt>
      <trkpt lat="46.09632" lon="4.60351">
        <ele>345</ele>
        <time>2022-01-10T14:15:03Z</time>
      </trkpt>
      <trkpt lat="46.0962" lon="4.60343">
        <ele>345</ele>
        <time>2022-01-10T14:15:20Z</time>
      </trkpt>
      <trkpt lat="46.09592" lon="4.60334">
        <ele>344</ele>
        <time>2022-01-10T14:15:59Z</time>
      </trkpt>
      <trkpt lat="46.09576" lon="4.60324">
        <ele>346</ele>
        <time>2022-01-10T14:16:22Z</time>
      </trkpt>
      <trkpt lat="46.09553" lon="4.60301">
        <ele>350</ele>
        <time>2022-01-10T14:16:59Z</time>
      </trkpt>
      <trkpt lat="46.09489" lon="4.6018">
        <ele>361</ele>
        <time>2022-01-10T14:19:20Z</time>
      </trkpt>
      <trkpt lat="46.09475" lon="4.60178">
        <ele>360</ele>
        <time>2022-01-10T14:19:39Z</time>
      </trkpt>
      <trkpt lat="46.09458" lon="4.6018">
        <ele>359</ele>
        <time>2022-01-10T14:20:02Z</time>
      </trkpt>
      <trkpt lat="46.09452" lon="4.60194">
        <ele>358</ele>
        <time>2022-01-10T14:20:17Z</time>
      </trkpt>
      <trkpt lat="46.09423" lon="4.6019">
        <ele>357</ele>
        <time>2022-01-10T14:20:56Z</time>
      </trkpt>
      <trkpt lat="46.09369" lon="4.60186">
        <ele>365</ele>
        <time>2022-01-10T14:22:08Z</time>
      </trkpt>
      <trkpt lat="46.0931" lon="4.6019">
        <ele>373</ele>
        <time>2022-01-10T14:23:27Z</time>
      </trkpt>
      <trkpt lat="46.09264" lon="4.60203">
        <ele>377</ele>
        <time>2022-01-10T14:24:29Z</time>
      </trkpt>
      <trkpt lat="46.09198" lon="4.6021">
        <ele>381</ele>
        <time>2022-01-10T14:25:58Z</time>
      </trkpt>
      <trkpt lat="46.09114" lon="4.60232">
        <ele>383</ele>
        <time>2022-01-10T14:27:51Z</time>
      </trkpt>
      <trkpt lat="46.09077" lon="4.60248">
        <ele>382</ele>
        <time>2022-01-10T14:28:43Z</time>
      </trkpt>
      <trkpt lat="46.09016" lon="4.6026">
        <ele>389</ele>
        <time>2022-01-10T14:30:05Z</time>
      </trkpt>
      <trkpt lat="46.08959" lon="4.6025">
        <ele>393</ele>
        <time>2022-01-10T14:31:22Z</time>
      </trkpt>
      <trkpt lat="46.08903" lon="4.60224">
        <ele>403</ele>
        <time>2022-01-10T14:32:40Z</time>
      </trkpt>
      <trkpt lat="46.08866" lon="4.60203">
        <ele>410</ele>
        <time>2022-01-10T14:33:33Z</time>
      </trkpt>
      <trkpt lat="46.08798" lon="4.60214">
        <ele>414</ele>
        <time>2022-01-10T14:35:05Z</time>
      </trkpt>
      <trkpt lat="46.08732" lon="4.60219">
        <ele>421</ele>
        <time>2022-01-10T14:36:33Z</time>
      </trkpt>
      <trkpt lat="46.08676" lon="4.60203">
        <ele>429</ele>
        <time>2022-01-10T14:37:49Z</time>
      </trkpt>
      <trkpt lat="46.08599" lon="4.6014">
        <ele>436</ele>
        <time>2022-01-10T14:39:47Z</time>
      </trkpt>
      <trkpt lat="46.0852" lon="4.60122">
        <ele>443</ele>
        <time>2022-01-10T14:41:34Z</time>
      </trkpt>
      <trkpt lat="46.08461" lon="4.60137">
        <ele>450</ele>
        <time>2022-01-10T14:42:54Z</time>
      </trkpt>
      <trkpt lat="46.08404" lon="4.60114">
        <ele>453</ele>
        <time>2022-01-10T14:44:13Z</time>
      </trkpt>
      <trkpt lat="46.08357" lon="4.60054">
        <ele>457</ele>
        <time>2022-01-10T14:45:37Z</time>
      </trkpt>
      <trkpt lat="46.08302" lon="4.59923">
        <ele>466</ele>
        <time>2022-01-10T14:47:58Z</time>
      </trkpt>
      <trkpt lat="46.08291" lon="4.59986">
        <ele>472</ele>
        <time>2022-01-10T14:48:59Z</time>
      </trkpt>
      <trkpt lat="46.08307" lon="4.6013">
        <ele>487</ele>
        <time>2022-01-10T14:51:14Z</time>
      </trkpt>
      <trkpt lat="46.0836" lon="4.60249">
        <ele>500</ele>
        <time>2022-01-10T14:53:24Z</time>
      </trkpt>
      <trkpt lat="46.08332" lon="4.60234">
        <ele>504</ele>
        <time>2022-01-10T14:54:04Z</time>
      </trkpt>
      <trkpt lat="46.08291" lon="4.60187">
        <ele>506</ele>
        <time>2022-01-10T14:55:14Z</time>
      </trkpt>
      <trkpt lat="46.08254" lon="4.60104">
        <ele>507</ele>
        <time>2022-01-10T14:56:45Z</time>
      </trkpt>
      <trkpt lat="46.0821" lon="4.60023">
        <ele>513</ele>
        <time>2022-01-10T14:58:21Z</time>
      </trkpt>
      <trkpt lat="46.08158" lon="4.59954">
        <ele>524</ele>
        <time>2022-01-10T14:59:55Z</time>
      </trkpt>
      <trkpt lat="46.08171" lon="4.6004">
        <ele>534</ele>
        <time>2022-01-10T15:01:17Z</time>
      </trkpt>
      <trkpt lat="46.0819" lon="4.60124">
        <ele>538</ele>
        <time>2022-01-10T15:02:38Z</time>
      </trkpt>
      <trkpt lat="46.08197" lon="4.60168">
        <ele>540</ele>
        <time>2022-01-10T15:03:20Z</time>
      </trkpt>
      <trkpt lat="46.08179" lon="4.60213">
        <ele>549</ele>
        <time>2022-01-10T15:04:08Z</time>
      </trkpt>
      <trkpt lat="46.08128" lon="4.60238">
        <ele>553</ele>
        <time>2022-01-10T15:05:20Z</time>
      </trkpt>
      <trkpt lat="46.08078" lon="4.60262">
        <ele>553</ele>
        <time>2022-01-10T15:06:30Z</time>
      </trkpt>
      <trkpt lat="46.0802" lon="4.60286">
        <ele>548</ele>
        <time>2022-01-10T15:07:51Z</time>
      </trkpt>
      <trkpt lat="46.07983" lon="4.60314">
        <ele>542</ele>
        <time>2022-01-10T15:08:47Z</time>
      </trkpt>
      <trkpt lat="46.07972" lon="4.60329">
        <ele>540</ele>
        <time>2022-01-10T15:09:07Z</time>
      </trkpt>
      <trkpt lat="46.07948" lon="4.60363">
        <ele>536</ele>
        <time>2022-01-10T15:09:52Z</time>
      </trkpt>
      <trkpt lat="46.07945" lon="4.60373">
        <ele>536</ele>
        <time>2022-01-10T15:10:02Z</time>
      </trkpt>
      <trkpt lat="46.07948" lon="4.60363">
        <ele>536</ele>
        <time>2022-01-10T15:10:12Z</time>
      </trkpt>
      <trkpt lat="46.07943" lon="4.60361">
        <ele>535</ele>
        <time>2022-01-10T15:10:19Z</time>
      </trkpt>
      <trkpt lat="46.07938" lon="4.60364">
        <ele>534</ele>
        <time>2022-01-10T15:10:26Z</time>
      </trkpt>
      <trkpt lat="46.0792" lon="4.6039">
        <ele>531</ele>
        <time>2022-01-10T15:11:00Z</time>
      </trkpt>
      <trkpt lat="46.07904" lon="4.6042">
        <ele>527</ele>
        <time>2022-01-10T15:11:35Z</time>
      </trkpt>
      <trkpt lat="46.07894" lon="4.60457">
        <ele>524</ele>
        <time>2022-01-10T15:12:12Z</time>
      </trkpt>
      <trkpt lat="46.07892" lon="4.60488">
        <ele>524</ele>
        <time>2022-01-10T15:12:41Z</time>
      </trkpt>
      <trkpt lat="46.07897" lon="4.60584">
        <ele>518</ele>
        <time>2022-01-10T15:14:10Z</time>
      </trkpt>
      <trkpt lat="46.07895" lon="4.60647">
        <ele>516</ele>
        <time>2022-01-10T15:15:08Z</time>
      </trkpt>
      <trkpt lat="46.0789" lon="4.60697">
        <ele>514</ele>
        <time>2022-01-10T15:15:55Z</time>
      </trkpt>
      <trkpt lat="46.07881" lon="4.60715">
        <ele>512</ele>
        <time>2022-01-10T15:16:15Z</time>
      </trkpt>
      <trkpt lat="46.07853" lon="4.60755">
        <ele>506</ele>
        <time>2022-01-10T15:17:08Z</time>
      </trkpt>
      <trkpt lat="46.07835" lon="4.60794">
        <ele>505</ele>
        <time>2022-01-10T15:17:51Z</time>
      </trkpt>
      <trkpt lat="46.07817" lon="4.60825">
        <ele>502</ele>
        <time>2022-01-10T15:18:29Z</time>
      </trkpt>
      <trkpt lat="46.07794" lon="4.60857">
        <ele>497</ele>
        <time>2022-01-10T15:19:12Z</time>
      </trkpt>
      <trkpt lat="46.07774" lon="4.60881">
        <ele>494</ele>
        <time>2022-01-10T15:19:46Z</time>
      </trkpt>
      <trkpt lat="46.07725" lon="4.60916">
        <ele>486</ele>
        <time>2022-01-10T15:20:59Z</time>
      </trkpt>
      <trkpt lat="46.07709" lon="4.60932">
        <ele>482</ele>
        <time>2022-01-10T15:21:25Z</time>
      </trkpt>
      <trkpt lat="46.07703" lon="4.60951">
        <ele>480</ele>
        <time>2022-01-10T15:21:45Z</time>
      </trkpt>
      <trkpt lat="46.07704" lon="4.60971">
        <ele>480</ele>
        <time>2022-01-10T15:22:03Z</time>
      </trkpt>
      <trkpt lat="46.0772" lon="4.61">
        <ele>483</ele>
        <time>2022-01-10T15:22:37Z</time>
      </trkpt>
      <trkpt lat="46.0772" lon="4.61015">
        <ele>481</ele>
        <time>2022-01-10T15:22:51Z</time>
      </trkpt>
      <trkpt lat="46.07709" lon="4.61019">
        <ele>479</ele>
        <time>2022-01-10T15:23:06Z</time>
      </trkpt>
      <trkpt lat="46.07684" lon="4.60985">
        <ele>476</ele>
        <time>2022-01-10T15:23:52Z</time>
      </trkpt>
      <trkpt lat="46.07681" lon="4.60992">
        <ele>476</ele>
        <time>2022-01-10T15:24:00Z</time>
      </trkpt>
      <trkpt lat="46.07665" lon="4.60994">
        <ele>472</ele>
        <time>2022-01-10T15:24:21Z</time>
      </trkpt>
      <trkpt lat="46.07649" lon="4.6099">
        <ele>469</ele>
        <time>2022-01-10T15:24:43Z</time>
      </trkpt>
      <trkpt lat="46.0763" lon="4.61018">
        <ele>464</ele>
        <time>2022-01-10T15:25:19Z</time>
      </trkpt>
      <trkpt lat="46.07613" lon="4.61049">
        <ele>459</ele>
        <time>2022-01-10T15:25:56Z</time>
      </trkpt>
      <trkpt lat="46.07591" lon="4.61075">
        <ele>454</ele>
        <time>2022-01-10T15:26:34Z</time>
      </trkpt>
      <trkpt lat="46.07586" lon="4.61072">
        <ele>454</ele>
        <time>2022-01-10T15:26:41Z</time>
      </trkpt>
      <trkpt lat="46.07565" lon="4.61042">
        <ele>450</ele>
        <time>2022-01-10T15:27:20Z</time>
      </trkpt>
      <trkpt lat="46.0755" lon="4.61041">
        <ele>448</ele>
        <time>2022-01-10T15:27:41Z</time>
      </trkpt>
      <trkpt lat="46.07531" lon="4.61047">
        <ele>444</ele>
        <time>2022-01-10T15:28:06Z</time>
      </trkpt>
      <trkpt lat="46.07516" lon="4.61049">
        <ele>441</ele>
        <time>2022-01-10T15:28:27Z</time>
      </trkpt>
      <trkpt lat="46.07493" lon="4.61044">
        <ele>437</ele>
        <time>2022-01-10T15:28:58Z</time>
      </trkpt>
      <trkpt lat="46.07486" lon="4.61092">
        <ele>434</ele>
        <time>2022-01-10T15:29:43Z</time>
      </trkpt>
      <trkpt lat="46.07491" lon="4.61132">
        <ele>430</ele>
        <time>2022-01-10T15:30:21Z</time>
      </trkpt>
      <trkpt lat="46.07511" lon="4.61205">
        <ele>422</ele>
        <time>2022-01-10T15:31:33Z</time>
      </trkpt>
      <trkpt lat="46.07518" lon="4.61212">
        <ele>421</ele>
        <time>2022-01-10T15:31:45Z</time>
      </trkpt>
      <trkpt lat="46.07526" lon="4.61223">
        <ele>420</ele>
        <time>2022-01-10T15:31:59Z</time>
      </trkpt>
      <trkpt lat="46.07542" lon="4.61237">
        <ele>418</ele>
        <time>2022-01-10T15:32:24Z</time>
      </trkpt>
      <trkpt lat="46.07554" lon="4.61242">
        <ele>418</ele>
        <time>2022-01-10T15:32:41Z</time>
      </trkpt>
      <trkpt lat="46.07578" lon="4.61245">
        <ele>419</ele>
        <time>2022-01-10T15:33:13Z</time>
      </trkpt>
      <trkpt lat="46.07585" lon="4.6125">
        <ele>418</ele>
        <time>2022-01-10T15:33:24Z</time>
      </trkpt>
      <trkpt lat="46.07598" lon="4.6127">
        <ele>416</ele>
        <time>2022-01-10T15:33:49Z</time>
      </trkpt>
      <trkpt lat="46.07601" lon="4.61279">
        <ele>415</ele>
        <time>2022-01-10T15:33:58Z</time>
      </trkpt>
      <trkpt lat="46.07616" lon="4.61284">
        <ele>415</ele>
        <time>2022-01-10T15:34:19Z</time>
      </trkpt>
      <trkpt lat="46.07621" lon="4.6129">
        <ele>415</ele>
        <time>2022-01-10T15:34:28Z</time>
      </trkpt>
      <trkpt lat="46.07625" lon="4.61286">
        <ele>416</ele>
        <time>2022-01-10T15:34:34Z</time>
      </trkpt>
      <trkpt lat="46.07636" lon="4.61287">
        <ele>416</ele>
        <time>2022-01-10T15:34:49Z</time>
      </trkpt>
      <trkpt lat="46.07656" lon="4.61311">
        <ele>412</ele>
        <time>2022-01-10T15:35:23Z</time>
      </trkpt>
      <trkpt lat="46.07671" lon="4.61321">
        <ele>411</ele>
        <time>2022-01-10T15:35:45Z</time>
      </trkpt>
      <trkpt lat="46.07763" lon="4.61359">
        <ele>412</ele>
        <time>2022-01-10T15:37:53Z</time>
      </trkpt>
      <trkpt lat="46.07838" lon="4.61338">
        <ele>413</ele>
        <time>2022-01-10T15:39:35Z</time>
      </trkpt>
      <trkpt lat="46.07858" lon="4.61336">
        <ele>412</ele>
        <time>2022-01-10T15:40:02Z</time>
      </trkpt>
      <trkpt lat="46.07872" lon="4.61343">
        <ele>411</ele>
        <time>2022-01-10T15:40:22Z</time>
      </trkpt>
      <trkpt lat="46.07918" lon="4.61402">
        <ele>401</ele>
        <time>2022-01-10T15:41:44Z</time>
      </trkpt>
      <trkpt lat="46.07942" lon="4.61388">
        <ele>405</ele>
        <time>2022-01-10T15:42:18Z</time>
      </trkpt>
      <trkpt lat="46.07952" lon="4.61389">
        <ele>406</ele>
        <time>2022-01-10T15:42:32Z</time>
      </trkpt>
      <trkpt lat="46.0796" lon="4.61404">
        <ele>406</ele>
        <time>2022-01-10T15:42:49Z</time>
      </trkpt>
      <trkpt lat="46.07968" lon="4.61431">
        <ele>405</ele>
        <time>2022-01-10T15:43:16Z</time>
      </trkpt>
      <trkpt lat="46.08009" lon="4.61498">
        <ele>412</ele>
        <time>2022-01-10T15:44:39Z</time>
      </trkpt>
      <trkpt lat="46.0803" lon="4.61576">
        <ele>415</ele>
        <time>2022-01-10T15:45:57Z</time>
      </trkpt>
      <trkpt lat="46.08039" lon="4.61596">
        <ele>417</ele>
        <time>2022-01-10T15:46:19Z</time>
      </trkpt>
      <trkpt lat="46.08056" lon="4.61618">
        <ele>419</ele>
        <time>2022-01-10T15:46:49Z</time>
      </trkpt>
      <trkpt lat="46.08063" lon="4.61621">
        <ele>421</ele>
        <time>2022-01-10T15:46:59Z</time>
      </trkpt>
      <trkpt lat="46.08065" lon="4.61619">
        <ele>421</ele>
        <time>2022-01-10T15:47:02Z</time>
      </trkpt>
      <trkpt lat="46.08071" lon="4.61625">
        <ele>422</ele>
        <time>2022-01-10T15:47:12Z</time>
      </trkpt>
      <trkpt lat="46.08078" lon="4.61672">
        <ele>421</ele>
        <time>2022-01-10T15:47:56Z</time>
      </trkpt>
      <trkpt lat="46.0808" lon="4.61689">
        <ele>420</ele>
        <time>2022-01-10T15:48:12Z</time>
      </trkpt>
      <trkpt lat="46.08081" lon="4.61749">
        <ele>416</ele>
        <time>2022-01-10T15:49:08Z</time>
      </trkpt>
      <trkpt lat="46.0808" lon="4.61799">
        <ele>414</ele>
        <time>2022-01-10T15:49:54Z</time>
      </trkpt>
      <trkpt lat="46.08075" lon="4.61827">
        <ele>412</ele>
        <time>2022-01-10T15:50:21Z</time>
      </trkpt>
      <trkpt lat="46.08068" lon="4.61885">
        <ele>409</ele>
        <time>2022-01-10T15:51:15Z</time>
      </trkpt>
      <trkpt lat="46.08056" lon="4.62024">
        <ele>401</ele>
        <time>2022-01-10T15:53:25Z</time>
      </trkpt>
      <trkpt lat="46.08051" lon="4.62051">
        <ele>399</ele>
        <time>2022-01-10T15:53:51Z</time>
      </trkpt>
      <trkpt lat="46.08048" lon="4.62075">
        <ele>397</ele>
        <time>2022-01-10T15:54:14Z</time>
      </trkpt>
      <trkpt lat="46.08042" lon="4.62177">
        <ele>389</ele>
        <time>2022-01-10T15:55:48Z</time>
      </trkpt>
      <trkpt lat="46.07976" lon="4.62347">
        <ele>375</ele>
        <time>2022-01-10T15:58:49Z</time>
      </trkpt>
      <trkpt lat="46.07967" lon="4.62363">
        <ele>373</ele>
        <time>2022-01-10T15:59:08Z</time>
      </trkpt>
      <trkpt lat="46.07953" lon="4.62371">
        <ele>372</ele>
        <time>2022-01-10T15:59:28Z</time>
      </trkpt>
      <trkpt lat="46.07931" lon="4.62392">
        <ele>369</ele>
        <time>2022-01-10T16:00:03Z</time>
      </trkpt>
      <trkpt lat="46.07922" lon="4.6241">
        <ele>368</ele>
        <time>2022-01-10T16:00:24Z</time>
      </trkpt>
      <trkpt lat="46.07895" lon="4.6245">
        <ele>364</ele>
        <time>2022-01-10T16:01:15Z</time>
      </trkpt>
      <trkpt lat="46.07881" lon="4.62468">
        <ele>363</ele>
        <time>2022-01-10T16:01:40Z</time>
      </trkpt>
      <trkpt lat="46.07893" lon="4.62482">
        <ele>363</ele>
        <time>2022-01-10T16:02:01Z</time>
      </trkpt>
      <trkpt lat="46.07905" lon="4.62494">
        <ele>362</ele>
        <time>2022-01-10T16:02:20Z</time>
      </trkpt>
      <trkpt lat="46.07903" lon="4.625">
        <ele>362</ele>
        <time>2022-01-10T16:02:27Z</time>
      </trkpt>
      <trkpt lat="46.07925" lon="4.62614">
        <ele>356</ele>
        <time>2022-01-10T16:04:16Z</time>
      </trkpt>
      <trkpt lat="46.07927" lon="4.62629">
        <ele>355</ele>
        <time>2022-01-10T16:04:30Z</time>
      </trkpt>
      <trkpt lat="46.07938" lon="4.62647">
        <ele>355</ele>
        <time>2022-01-10T16:04:52Z</time>
      </trkpt>
      <trkpt lat="46.07943" lon="4.62666">
        <ele>355</ele>
        <time>2022-01-10T16:05:11Z</time>
      </trkpt>
      <trkpt lat="46.07947" lon="4.62696">
        <ele>356</ele>
        <time>2022-01-10T16:05:39Z</time>
      </trkpt>
      <trkpt lat="46.07947" lon="4.62724">
        <ele>356</ele>
        <time>2022-01-10T16:06:05Z</time>
      </trkpt>
      <trkpt lat="46.07937" lon="4.6273">
        <ele>355</ele>
        <time>2022-01-10T16:06:20Z</time>
      </trkpt>
      <trkpt lat="46.07928" lon="4.62744">
        <ele>354</ele>
        <time>2022-01-10T16:06:38Z</time>
      </trkpt>
      <trkpt lat="46.07919" lon="4.62761">
        <ele>355</ele>
        <time>2022-01-10T16:06:57Z</time>
      </trkpt>
      <trkpt lat="46.0791" lon="4.62786">
        <ele>357</ele>
        <time>2022-01-10T16:07:23Z</time>
      </trkpt>
      <trkpt lat="46.0785" lon="4.62877">
        <ele>366</ele>
        <time>2022-01-10T16:09:20Z</time>
      </trkpt>
      <trkpt lat="46.07824" lon="4.629">
        <ele>369</ele>
        <time>2022-01-10T16:10:00Z</time>
      </trkpt>
      <trkpt lat="46.07807" lon="4.62911">
        <ele>370</ele>
        <time>2022-01-10T16:10:25Z</time>
      </trkpt>
      <trkpt lat="46.07756" lon="4.62963">
        <ele>374</ele>
        <time>2022-01-10T16:11:49Z</time>
      </trkpt>
      <trkpt lat="46.07718" lon="4.62972">
        <ele>375</ele>
        <time>2022-01-10T16:12:40Z</time>
      </trkpt>
      <trkpt lat="46.0771" lon="4.62979">
        <ele>376</ele>
        <time>2022-01-10T16:12:52Z</time>
      </trkpt>
    </trkseg>
  </trk>
</gpx>